Aeroporto :
LOGIN :

Iscrizione | Disclaimer

   EN    FR    IT 

 










Sommario :    VFR   VFR Marginale   IFR   IFR Intensivo   IFR Molto Intensivo
Visibilità : 
Base nubi : 
>= 8 km
>= 3000ft
5 / 8 km
1000 / 3000 ft
1500m / 5 km
500 / 1000 ft
800 / 1500m
200 / 500 ft
< 800m
< 200 ft
Simboli :   Temporali  Nebbia  Neve Forte  Precipitazioni Forti  Vento > 20 kt
SIGMETs :   Varie  Temporali  Ghiacco  Turbolenza  Onda orograficha  Ceneri Vulcaniche






- Altitudine del aeroporto : 352 ft
- Codice IATA : KSD


ESOK - Karlstad

ULTIMO METAR :
  • 171650Z 21005KT 190V260 9999 OVC007 04/04 Q1016

METARs OBSOLETI :
  • 171620Z 27006KT 9999 OVC006 04/04 Q1015
  • 171550Z 23005KT 9999 OVC006 04/04 Q1015
  • 171520Z 24007KT 9999 OVC007 04/04 Q1014
  • 171450Z 25009KT 9999 OVC005 05/05 Q1014

TAF TAF ESOK
Valido dal 17 a 15 ore il 17 a 19 ore UTC


171430Z 1715/1719 03005KT 3000 BR OVC002
TEMPO 1715/1719 0700 FG



MetMap, La meteo Aeronautica in un colpo d'occhio ! - Copyright ORBIFLY Dicembre 2007 - Disclaimer

ORBIFLY MET'MAP TEAM :

Programmazione e sviluppo : Alexandra Zaïnal
Concezione e sviluppo : Baudouin d'Aumeries
Co-Programmazione e sviluppo : Marc-Olivier Méhu
Supporto tecnico e logistico : Manuel Goepfert
Aiuto per la traduzione : Arnaldo La Scala

Contatto : metmap@orbifly.com




FONTI E CREDITI :

   NOAA